sensor_id;sensor_type;location;lat;lon;timestamp;P1;durP1;ratioP1;P2;durP2;ratioP2
55053;SDS011;40954;45.668;18.980;2022-10-31T00:01:32;84.10;;;47.00;;
55053;SDS011;40954;45.668;18.980;2022-10-31T00:04:00;130.00;;;44.55;;
55053;SDS011;40954;45.668;18.980;2022-10-31T00:06:26;143.35;;;45.22;;
55053;SDS011;40954;45.668;18.980;2022-10-31T00:08:56;89.13;;;46.05;;
55053;SDS011;40954;45.668;18.980;2022-10-31T00:11:24;85.90;;;45.85;;
55053;SDS011;40954;45.668;18.980;2022-10-31T00:13:50;85.05;;;45.65;;
55053;SDS011;40954;45.668;18.980;2022-10-31T00:16:17;102.28;;;46.15;;
55053;SDS011;40954;45.668;18.980;2022-10-31T00:18:47;121.45;;;46.28;;
55053;SDS011;40954;45.668;18.980;2022-10-31T00:21:14;104.05;;;45.40;;
55053;SDS011;40954;45.668;18.980;2022-10-31T00:23:40;74.63;;;44.63;;
55053;SDS011;40954;45.668;18.980;2022-10-31T00:26:06;88.72;;;45.13;;
55053;SDS011;40954;45.668;18.980;2022-10-31T00:28:32;70.20;;;42.00;;
55053;SDS011;40954;45.668;18.980;2022-10-31T00:31:02;107.05;;;44.33;;
55053;SDS011;40954;45.668;18.980;2022-10-31T00:33:29;74.10;;;43.10;;
55053;SDS011;40954;45.668;18.980;2022-10-31T00:35:55;145.73;;;44.88;;
55053;SDS011;40954;45.668;18.980;2022-10-31T00:38:21;140.30;;;46.78;;
55053;SDS011;40954;45.668;18.980;2022-10-31T00:40:46;145.52;;;45.65;;
55053;SDS011;40954;45.668;18.980;2022-10-31T00:43:12;106.72;;;45.17;;
55053;SDS011;40954;45.668;18.980;2022-10-31T00:45:38;116.22;;;43.60;;
55053;SDS011;40954;45.668;18.980;2022-10-31T00:48:03;212.75;;;45.80;;
55053;SDS011;40954;45.668;18.980;2022-10-31T00:50:30;100.47;;;45.22;;
55053;SDS011;40954;45.668;18.980;2022-10-31T00:52:55;108.15;;;43.53;;
55053;SDS011;40954;45.668;18.980;2022-10-31T00:55:21;101.30;;;41.30;;
55053;SDS011;40954;45.668;18.980;2022-10-31T00:57:47;99.60;;;44.38;;
55053;SDS011;40954;45.668;18.980;2022-10-31T01:00:13;83.07;;;43.15;;
55053;SDS011;40954;45.668;18.980;2022-10-31T01:02:40;71.68;;;42.65;;
55053;SDS011;40954;45.668;18.980;2022-10-31T01:05:06;100.75;;;43.10;;
55053;SDS011;40954;45.668;18.980;2022-10-31T01:07:31;120.07;;;42.90;;
55053;SDS011;40954;45.668;18.980;2022-10-31T01:10:00;106.10;;;44.13;;
55053;SDS011;40954;45.668;18.980;2022-10-31T01:12:26;119.30;;;44.95;;
55053;SDS011;40954;45.668;18.980;2022-10-31T01:14:51;112.95;;;47.05;;
55053;SDS011;40954;45.668;18.980;2022-10-31T01:17:17;82.45;;;44.58;;
55053;SDS011;40954;45.668;18.980;2022-10-31T01:19:43;136.38;;;45.28;;
55053;SDS011;40954;45.668;18.980;2022-10-31T01:22:09;94.05;;;45.55;;
55053;SDS011;40954;45.668;18.980;2022-10-31T01:24:35;119.45;;;42.63;;
55053;SDS011;40954;45.668;18.980;2022-10-31T01:27:01;135.95;;;44.33;;
55053;SDS011;40954;45.668;18.980;2022-10-31T01:29:27;76.75;;;42.03;;
55053;SDS011;40954;45.668;18.980;2022-10-31T01:31:52;107.10;;;41.40;;
55053;SDS011;40954;45.668;18.980;2022-10-31T01:34:18;71.95;;;42.58;;
55053;SDS011;40954;45.668;18.980;2022-10-31T01:36:44;134.45;;;43.08;;
55053;SDS011;40954;45.668;18.980;2022-10-31T01:39:16;125.63;;;43.30;;
55053;SDS011;40954;45.668;18.980;2022-10-31T01:41:43;91.22;;;42.83;;
55053;SDS011;40954;45.668;18.980;2022-10-31T01:46:43;72.43;;;40.70;;
55053;SDS011;40954;45.668;18.980;2022-10-31T01:52:38;109.72;;;42.20;;
55053;SDS011;40954;45.668;18.980;2022-10-31T01:54:45;77.20;;;41.60;;
55053;SDS011;40954;45.668;18.980;2022-10-31T01:57:33;78.68;;;40.03;;
55053;SDS011;40954;45.668;18.980;2022-10-31T02:00:03;71.55;;;40.60;;
55053;SDS011;40954;45.668;18.980;2022-10-31T02:02:31;73.38;;;41.30;;
55053;SDS011;40954;45.668;18.980;2022-10-31T02:04:57;63.70;;;39.85;;
55053;SDS011;40954;45.668;18.980;2022-10-31T02:07:27;71.13;;;38.60;;
55053;SDS011;40954;45.668;18.980;2022-10-31T02:12:25;82.53;;;37.80;;
55053;SDS011;40954;45.668;18.980;2022-10-31T02:14:52;57.45;;;35.90;;
55053;SDS011;40954;45.668;18.980;2022-10-31T02:17:17;68.43;;;38.35;;
55053;SDS011;40954;45.668;18.980;2022-10-31T02:27:59;53.55;;;37.17;;
55053;SDS011;40954;45.668;18.980;2022-10-31T02:36:33;55.75;;;36.47;;
55053;SDS011;40954;45.668;18.980;2022-10-31T02:43:46;66.22;;;36.00;;
55053;SDS011;40954;45.668;18.980;2022-10-31T02:46:16;59.53;;;32.97;;
55053;SDS011;40954;45.668;18.980;2022-10-31T02:48:50;42.95;;;31.15;;
55053;SDS011;40954;45.668;18.980;2022-10-31T02:51:19;54.10;;;31.23;;
55053;SDS011;40954;45.668;18.980;2022-10-31T02:53:45;45.25;;;31.90;;
55053;SDS011;40954;45.668;18.980;2022-10-31T02:56:15;48.47;;;30.05;;
55053;SDS011;40954;45.668;18.980;2022-10-31T02:59:01;47.35;;;29.10;;
55053;SDS011;40954;45.668;18.980;2022-10-31T03:04:23;42.33;;;27.70;;
55053;SDS011;40954;45.668;18.980;2022-10-31T03:12:27;46.47;;;32.10;;
55053;SDS011;40954;45.668;18.980;2022-10-31T03:17:37;55.13;;;30.63;;
55053;SDS011;40954;45.668;18.980;2022-10-31T03:20:19;56.88;;;28.67;;
55053;SDS011;40954;45.668;18.980;2022-10-31T03:22:49;65.63;;;29.63;;
55053;SDS011;40954;45.668;18.980;2022-10-31T03:25:17;43.97;;;30.77;;
55053;SDS011;40954;45.668;18.980;2022-10-31T03:27:43;53.92;;;30.05;;
55053;SDS011;40954;45.668;18.980;2022-10-31T03:30:11;47.40;;;31.00;;
55053;SDS011;40954;45.668;18.980;2022-10-31T03:32:41;60.95;;;31.02;;
55053;SDS011;40954;45.668;18.980;2022-10-31T03:35:17;64.63;;;32.63;;
55053;SDS011;40954;45.668;18.980;2022-10-31T03:37:45;66.05;;;32.38;;
55053;SDS011;40954;45.668;18.980;2022-10-31T03:40:14;51.85;;;31.13;;
55053;SDS011;40954;45.668;18.980;2022-10-31T03:42:44;73.30;;;30.00;;
55053;SDS011;40954;45.668;18.980;2022-10-31T03:45:18;57.75;;;31.58;;
55053;SDS011;40954;45.668;18.980;2022-10-31T03:47:48;48.58;;;27.17;;
55053;SDS011;40954;45.668;18.980;2022-10-31T03:50:14;49.42;;;28.50;;
55053;SDS011;40954;45.668;18.980;2022-10-31T03:52:43;49.97;;;28.63;;
55053;SDS011;40954;45.668;18.980;2022-10-31T03:55:18;61.42;;;27.63;;
55053;SDS011;40954;45.668;18.980;2022-10-31T04:00:28;47.30;;;25.48;;
55053;SDS011;40954;45.668;18.980;2022-10-31T04:02:58;82.32;;;27.27;;
55053;SDS011;40954;45.668;18.980;2022-10-31T04:05:30;44.08;;;27.17;;
55053;SDS011;40954;45.668;18.980;2022-10-31T04:07:57;57.30;;;28.33;;
55053;SDS011;40954;45.668;18.980;2022-10-31T04:10:26;52.95;;;30.95;;
55053;SDS011;40954;45.668;18.980;2022-10-31T04:12:58;38.75;;;28.48;;
55053;SDS011;40954;45.668;18.980;2022-10-31T04:15:28;60.85;;;30.40;;
55053;SDS011;40954;45.668;18.980;2022-10-31T04:17:56;49.45;;;30.20;;
55053;SDS011;40954;45.668;18.980;2022-10-31T04:20:34;41.38;;;30.33;;
55053;SDS011;40954;45.668;18.980;2022-10-31T04:23:05;67.53;;;30.70;;
55053;SDS011;40954;45.668;18.980;2022-10-31T04:25:48;44.50;;;28.55;;
55053;SDS011;40954;45.668;18.980;2022-10-31T04:28:14;39.47;;;27.08;;
55053;SDS011;40954;45.668;18.980;2022-10-31T04:30:39;51.22;;;28.55;;
55053;SDS011;40954;45.668;18.980;2022-10-31T04:33:05;51.80;;;29.00;;
55053;SDS011;40954;45.668;18.980;2022-10-31T04:35:31;67.30;;;27.27;;
55053;SDS011;40954;45.668;18.980;2022-10-31T04:37:56;48.88;;;27.15;;
55053;SDS011;40954;45.668;18.980;2022-10-31T04:40:22;45.28;;;27.05;;
55053;SDS011;40954;45.668;18.980;2022-10-31T04:42:48;59.95;;;27.33;;
55053;SDS011;40954;45.668;18.980;2022-10-31T04:45:13;77.10;;;27.33;;
55053;SDS011;40954;45.668;18.980;2022-10-31T04:47:39;69.68;;;28.17;;
55053;SDS011;40954;45.668;18.980;2022-10-31T04:50:05;54.67;;;28.95;;
55053;SDS011;40954;45.668;18.980;2022-10-31T04:52:31;59.88;;;27.70;;
55053;SDS011;40954;45.668;18.980;2022-10-31T04:54:56;40.13;;;27.45;;
55053;SDS011;40954;45.668;18.980;2022-10-31T04:57:22;48.78;;;27.77;;
55053;SDS011;40954;45.668;18.980;2022-10-31T04:59:48;45.53;;;26.63;;
55053;SDS011;40954;45.668;18.980;2022-10-31T05:02:14;51.38;;;25.38;;
55053;SDS011;40954;45.668;18.980;2022-10-31T05:04:39;45.47;;;26.55;;
55053;SDS011;40954;45.668;18.980;2022-10-31T05:07:05;38.58;;;27.67;;
55053;SDS011;40954;45.668;18.980;2022-10-31T05:09:31;54.33;;;26.10;;
55053;SDS011;40954;45.668;18.980;2022-10-31T05:11:56;56.78;;;30.20;;
55053;SDS011;40954;45.668;18.980;2022-10-31T05:14:22;46.95;;;30.17;;
55053;SDS011;40954;45.668;18.980;2022-10-31T05:16:48;43.42;;;30.17;;
55053;SDS011;40954;45.668;18.980;2022-10-31T05:19:13;45.20;;;32.15;;
55053;SDS011;40954;45.668;18.980;2022-10-31T05:21:39;83.05;;;31.45;;
55053;SDS011;40954;45.668;18.980;2022-10-31T05:24:05;57.33;;;32.78;;
55053;SDS011;40954;45.668;18.980;2022-10-31T05:26:31;56.47;;;33.28;;
55053;SDS011;40954;45.668;18.980;2022-10-31T05:28:56;71.75;;;34.88;;
55053;SDS011;40954;45.668;18.980;2022-10-31T05:31:22;55.08;;;32.75;;
55053;SDS011;40954;45.668;18.980;2022-10-31T05:33:48;57.60;;;33.65;;
55053;SDS011;40954;45.668;18.980;2022-10-31T05:36:13;64.18;;;33.40;;
55053;SDS011;40954;45.668;18.980;2022-10-31T05:38:39;94.85;;;34.10;;
55053;SDS011;40954;45.668;18.980;2022-10-31T05:41:05;54.72;;;35.95;;
55053;SDS011;40954;45.668;18.980;2022-10-31T05:43:31;75.13;;;36.15;;
55053;SDS011;40954;45.668;18.980;2022-10-31T05:45:56;71.15;;;34.65;;
55053;SDS011;40954;45.668;18.980;2022-10-31T05:48:22;87.50;;;36.47;;
55053;SDS011;40954;45.668;18.980;2022-10-31T05:50:48;66.35;;;34.47;;
55053;SDS011;40954;45.668;18.980;2022-10-31T05:53:14;69.85;;;37.58;;
55053;SDS011;40954;45.668;18.980;2022-10-31T05:55:40;99.07;;;34.17;;
55053;SDS011;40954;45.668;18.980;2022-10-31T05:58:08;86.28;;;33.97;;
55053;SDS011;40954;45.668;18.980;2022-10-31T06:00:34;51.40;;;31.77;;
55053;SDS011;40954;45.668;18.980;2022-10-31T06:03:01;109.82;;;33.55;;
55053;SDS011;40954;45.668;18.980;2022-10-31T06:05:34;63.70;;;34.70;;
55053;SDS011;40954;45.668;18.980;2022-10-31T06:07:59;74.57;;;31.52;;
55053;SDS011;40954;45.668;18.980;2022-10-31T06:10:25;58.85;;;32.00;;
55053;SDS011;40954;45.668;18.980;2022-10-31T06:12:52;68.18;;;30.10;;
55053;SDS011;40954;45.668;18.980;2022-10-31T06:15:17;78.03;;;30.45;;
55053;SDS011;40954;45.668;18.980;2022-10-31T06:17:43;63.80;;;31.05;;
55053;SDS011;40954;45.668;18.980;2022-10-31T06:20:09;55.85;;;29.75;;
55053;SDS011;40954;45.668;18.980;2022-10-31T06:22:35;51.95;;;26.63;;
55053;SDS011;40954;45.668;18.980;2022-10-31T06:25:01;86.82;;;28.50;;
55053;SDS011;40954;45.668;18.980;2022-10-31T06:27:27;80.88;;;28.50;;
55053;SDS011;40954;45.668;18.980;2022-10-31T06:29:53;64.28;;;28.02;;
55053;SDS011;40954;45.668;18.980;2022-10-31T06:32:19;66.45;;;28.83;;
55053;SDS011;40954;45.668;18.980;2022-10-31T06:34:44;62.03;;;29.33;;
55053;SDS011;40954;45.668;18.980;2022-10-31T06:37:13;54.28;;;29.13;;
55053;SDS011;40954;45.668;18.980;2022-10-31T06:39:39;70.30;;;30.73;;
55053;SDS011;40954;45.668;18.980;2022-10-31T06:42:04;50.80;;;29.65;;
55053;SDS011;40954;45.668;18.980;2022-10-31T06:44:31;52.38;;;30.50;;
55053;SDS011;40954;45.668;18.980;2022-10-31T06:46:57;67.00;;;29.83;;
55053;SDS011;40954;45.668;18.980;2022-10-31T06:49:22;61.63;;;30.48;;
55053;SDS011;40954;45.668;18.980;2022-10-31T06:51:48;52.95;;;31.02;;
55053;SDS011;40954;45.668;18.980;2022-10-31T06:54:15;62.20;;;31.80;;
55053;SDS011;40954;45.668;18.980;2022-10-31T06:56:41;61.58;;;32.22;;
55053;SDS011;40954;45.668;18.980;2022-10-31T06:59:07;69.13;;;30.58;;
55053;SDS011;40954;45.668;18.980;2022-10-31T07:01:33;54.13;;;30.42;;
55053;SDS011;40954;45.668;18.980;2022-10-31T07:03:58;68.47;;;30.75;;
55053;SDS011;40954;45.668;18.980;2022-10-31T07:06:24;55.75;;;31.50;;
55053;SDS011;40954;45.668;18.980;2022-10-31T07:08:50;57.80;;;30.88;;
55053;SDS011;40954;45.668;18.980;2022-10-31T07:11:15;54.38;;;29.85;;
55053;SDS011;40954;45.668;18.980;2022-10-31T07:13:41;46.08;;;29.10;;
55053;SDS011;40954;45.668;18.980;2022-10-31T07:16:07;70.00;;;28.70;;
55053;SDS011;40954;45.668;18.980;2022-10-31T07:18:36;58.28;;;26.85;;
55053;SDS011;40954;45.668;18.980;2022-10-31T07:21:02;41.10;;;29.08;;
55053;SDS011;40954;45.668;18.980;2022-10-31T07:23:29;37.67;;;28.17;;
55053;SDS011;40954;45.668;18.980;2022-10-31T07:25:58;48.00;;;27.42;;
55053;SDS011;40954;45.668;18.980;2022-10-31T07:28:25;49.10;;;27.67;;
55053;SDS011;40954;45.668;18.980;2022-10-31T07:30:54;41.13;;;27.85;;
55053;SDS011;40954;45.668;18.980;2022-10-31T07:33:21;49.80;;;26.88;;
55053;SDS011;40954;45.668;18.980;2022-10-31T07:35:47;44.70;;;27.95;;
55053;SDS011;40954;45.668;18.980;2022-10-31T07:38:14;39.25;;;28.23;;
55053;SDS011;40954;45.668;18.980;2022-10-31T07:40:40;36.72;;;27.00;;
55053;SDS011;40954;45.668;18.980;2022-10-31T07:43:07;45.70;;;26.13;;
55053;SDS011;40954;45.668;18.980;2022-10-31T07:45:33;37.53;;;25.90;;
55053;SDS011;40954;45.668;18.980;2022-10-31T07:47:59;30.13;;;24.83;;
55053;SDS011;40954;45.668;18.980;2022-10-31T07:50:25;32.45;;;26.08;;
55053;SDS011;40954;45.668;18.980;2022-10-31T07:53:04;37.20;;;26.90;;
55053;SDS011;40954;45.668;18.980;2022-10-31T07:55:32;37.38;;;27.95;;
55053;SDS011;40954;45.668;18.980;2022-10-31T08:00:24;43.50;;;32.47;;
55053;SDS011;40954;45.668;18.980;2022-10-31T08:03:00;45.13;;;32.38;;
55053;SDS011;40954;45.668;18.980;2022-10-31T08:05:28;38.20;;;31.80;;
55053;SDS011;40954;45.668;18.980;2022-10-31T08:07:54;47.60;;;31.65;;
55053;SDS011;40954;45.668;18.980;2022-10-31T08:10:20;42.15;;;32.03;;
55053;SDS011;40954;45.668;18.980;2022-10-31T08:12:47;37.92;;;30.95;;
55053;SDS011;40954;45.668;18.980;2022-10-31T08:15:19;55.88;;;32.30;;
55053;SDS011;40954;45.668;18.980;2022-10-31T08:17:45;62.92;;;33.42;;
55053;SDS011;40954;45.668;18.980;2022-10-31T08:20:10;41.20;;;32.88;;
55053;SDS011;40954;45.668;18.980;2022-10-31T08:22:36;62.08;;;32.85;;
55053;SDS011;40954;45.668;18.980;2022-10-31T08:25:02;41.17;;;33.70;;
55053;SDS011;40954;45.668;18.980;2022-10-31T08:27:28;52.72;;;33.30;;
55053;SDS011;40954;45.668;18.980;2022-10-31T08:29:53;41.22;;;33.90;;
55053;SDS011;40954;45.668;18.980;2022-10-31T08:32:19;42.08;;;32.05;;
55053;SDS011;40954;45.668;18.980;2022-10-31T08:34:45;39.28;;;33.30;;
55053;SDS011;40954;45.668;18.980;2022-10-31T08:37:10;46.45;;;34.28;;
55053;SDS011;40954;45.668;18.980;2022-10-31T08:39:37;43.53;;;34.13;;
55053;SDS011;40954;45.668;18.980;2022-10-31T08:42:03;44.92;;;35.70;;
55053;SDS011;40954;45.668;18.980;2022-10-31T08:44:28;49.83;;;36.47;;
55053;SDS011;40954;45.668;18.980;2022-10-31T08:46:54;45.67;;;36.40;;
55053;SDS011;40954;45.668;18.980;2022-10-31T08:49:20;48.35;;;37.33;;
55053;SDS011;40954;45.668;18.980;2022-10-31T08:51:48;45.13;;;36.25;;
55053;SDS011;40954;45.668;18.980;2022-10-31T08:54:14;47.55;;;36.03;;
55053;SDS011;40954;45.668;18.980;2022-10-31T08:56:40;45.25;;;35.72;;
55053;SDS011;40954;45.668;18.980;2022-10-31T08:59:05;43.22;;;36.50;;
55053;SDS011;40954;45.668;18.980;2022-10-31T09:01:31;45.20;;;37.08;;
55053;SDS011;40954;45.668;18.980;2022-10-31T09:03:57;48.03;;;37.40;;
55053;SDS011;40954;45.668;18.980;2022-10-31T09:06:22;46.38;;;37.40;;
55053;SDS011;40954;45.668;18.980;2022-10-31T09:08:48;48.53;;;39.28;;
55053;SDS011;40954;45.668;18.980;2022-10-31T09:11:14;52.97;;;40.13;;
55053;SDS011;40954;45.668;18.980;2022-10-31T09:13:39;51.13;;;38.40;;
55053;SDS011;40954;45.668;18.980;2022-10-31T09:16:05;53.65;;;38.55;;
55053;SDS011;40954;45.668;18.980;2022-10-31T09:18:31;48.58;;;39.70;;
55053;SDS011;40954;45.668;18.980;2022-10-31T09:20:57;50.40;;;38.53;;
55053;SDS011;40954;45.668;18.980;2022-10-31T09:23:24;53.08;;;36.78;;
55053;SDS011;40954;45.668;18.980;2022-10-31T09:25:50;57.45;;;40.35;;
55053;SDS011;40954;45.668;18.980;2022-10-31T09:28:18;51.17;;;40.45;;
55053;SDS011;40954;45.668;18.980;2022-10-31T09:30:46;52.10;;;39.92;;
55053;SDS011;40954;45.668;18.980;2022-10-31T09:33:13;53.92;;;41.95;;
55053;SDS011;40954;45.668;18.980;2022-10-31T09:35:40;62.97;;;40.03;;
55053;SDS011;40954;45.668;18.980;2022-10-31T09:38:08;55.88;;;40.05;;
55053;SDS011;40954;45.668;18.980;2022-10-31T09:40:43;55.30;;;42.45;;
55053;SDS011;40954;45.668;18.980;2022-10-31T09:51:37;55.05;;;43.03;;
55053;SDS011;40954;45.668;18.980;2022-10-31T09:54:18;58.00;;;42.72;;
55053;SDS011;40954;45.668;18.980;2022-10-31T09:56:58;61.85;;;46.22;;
55053;SDS011;40954;45.668;18.980;2022-10-31T09:59:34;55.58;;;44.28;;
55053;SDS011;40954;45.668;18.980;2022-10-31T10:05:12;68.60;;;46.80;;
55053;SDS011;40954;45.668;18.980;2022-10-31T10:07:55;60.15;;;46.88;;
55053;SDS011;40954;45.668;18.980;2022-10-31T10:10:35;58.35;;;47.15;;
55053;SDS011;40954;45.668;18.980;2022-10-31T10:20:56;58.78;;;46.30;;
55053;SDS011;40954;45.668;18.980;2022-10-31T10:23:45;61.00;;;47.15;;
55053;SDS011;40954;45.668;18.980;2022-10-31T10:26:17;58.85;;;46.47;;
55053;SDS011;40954;45.668;18.980;2022-10-31T10:28:45;63.78;;;48.13;;
55053;SDS011;40954;45.668;18.980;2022-10-31T10:31:15;58.83;;;46.45;;
55053;SDS011;40954;45.668;18.980;2022-10-31T10:36:36;56.63;;;44.22;;
55053;SDS011;40954;45.668;18.980;2022-10-31T10:39:04;62.72;;;47.30;;
55053;SDS011;40954;45.668;18.980;2022-10-31T10:41:40;68.78;;;52.88;;
55053;SDS011;40954;45.668;18.980;2022-10-31T10:44:10;72.95;;;54.67;;
55053;SDS011;40954;45.668;18.980;2022-10-31T10:46:43;73.57;;;53.83;;
55053;SDS011;40954;45.668;18.980;2022-10-31T10:49:44;65.57;;;50.15;;
55053;SDS011;40954;45.668;18.980;2022-10-31T10:54:57;63.63;;;48.63;;
55053;SDS011;40954;45.668;18.980;2022-10-31T11:00:24;61.50;;;47.40;;
55053;SDS011;40954;45.668;18.980;2022-10-31T11:02:52;63.28;;;49.67;;
55053;SDS011;40954;45.668;18.980;2022-10-31T11:05:23;63.55;;;49.88;;
55053;SDS011;40954;45.668;18.980;2022-10-31T11:08:10;57.22;;;46.33;;
55053;SDS011;40954;45.668;18.980;2022-10-31T11:10:36;61.25;;;46.70;;
55053;SDS011;40954;45.668;18.980;2022-10-31T11:13:16;62.65;;;49.47;;
55053;SDS011;40954;45.668;18.980;2022-10-31T11:16:49;63.85;;;51.25;;
55053;SDS011;40954;45.668;18.980;2022-10-31T11:18:54;62.65;;;48.30;;
55053;SDS011;40954;45.668;18.980;2022-10-31T11:21:41;62.25;;;49.95;;
55053;SDS011;40954;45.668;18.980;2022-10-31T11:26:35;61.55;;;50.60;;
55053;SDS011;40954;45.668;18.980;2022-10-31T11:29:10;63.05;;;49.70;;
55053;SDS011;40954;45.668;18.980;2022-10-31T11:31:40;63.72;;;51.65;;
55053;SDS011;40954;45.668;18.980;2022-10-31T11:34:13;64.32;;;51.75;;
55053;SDS011;40954;45.668;18.980;2022-10-31T11:36:43;65.90;;;52.72;;
55053;SDS011;40954;45.668;18.980;2022-10-31T11:39:15;66.50;;;53.30;;
55053;SDS011;40954;45.668;18.980;2022-10-31T11:41:49;70.13;;;54.80;;
55053;SDS011;40954;45.668;18.980;2022-10-31T11:49:15;69.43;;;54.35;;
55053;SDS011;40954;45.668;18.980;2022-10-31T11:51:46;71.60;;;53.80;;
55053;SDS011;40954;45.668;18.980;2022-10-31T11:54:18;71.00;;;54.33;;
55053;SDS011;40954;45.668;18.980;2022-10-31T11:56:49;70.82;;;54.72;;
55053;SDS011;40954;45.668;18.980;2022-10-31T11:59:17;69.60;;;53.38;;
55053;SDS011;40954;45.668;18.980;2022-10-31T12:01:48;67.30;;;54.85;;
55053;SDS011;40954;45.668;18.980;2022-10-31T12:04:14;67.70;;;52.70;;
55053;SDS011;40954;45.668;18.980;2022-10-31T12:06:42;70.13;;;56.30;;
55053;SDS011;40954;45.668;18.980;2022-10-31T12:17:25;79.53;;;62.83;;
55053;SDS011;40954;45.668;18.980;2022-10-31T12:22:36;72.80;;;57.60;;
55053;SDS011;40954;45.668;18.980;2022-10-31T12:43:12;83.18;;;61.90;;
55053;SDS011;40954;45.668;18.980;2022-10-31T12:45:51;83.20;;;62.08;;
55053;SDS011;40954;45.668;18.980;2022-10-31T12:48:33;79.45;;;60.08;;
55053;SDS011;40954;45.668;18.980;2022-10-31T12:53:46;78.97;;;60.95;;
55053;SDS011;40954;45.668;18.980;2022-10-31T12:58:47;74.45;;;55.67;;
55053;SDS011;40954;45.668;18.980;2022-10-31T13:01:33;75.88;;;56.03;;
55053;SDS011;40954;45.668;18.980;2022-10-31T13:06:30;83.05;;;61.67;;
55053;SDS011;40954;45.668;18.980;2022-10-31T13:09:02;83.20;;;61.63;;
55053;SDS011;40954;45.668;18.980;2022-10-31T13:11:51;88.25;;;62.72;;
55053;SDS011;40954;45.668;18.980;2022-10-31T13:14:18;86.43;;;64.18;;
55053;SDS011;40954;45.668;18.980;2022-10-31T13:16:47;92.60;;;66.65;;
55053;SDS011;40954;45.668;18.980;2022-10-31T13:19:17;93.80;;;68.45;;
55053;SDS011;40954;45.668;18.980;2022-10-31T13:21:51;91.60;;;66.57;;
55053;SDS011;40954;45.668;18.980;2022-10-31T13:24:21;96.75;;;68.63;;
55053;SDS011;40954;45.668;18.980;2022-10-31T13:26:50;91.95;;;68.13;;
55053;SDS011;40954;45.668;18.980;2022-10-31T13:31:54;93.65;;;67.38;;
55053;SDS011;40954;45.668;18.980;2022-10-31T13:34:24;87.38;;;65.82;;
55053;SDS011;40954;45.668;18.980;2022-10-31T13:42:55;84.75;;;61.38;;
55053;SDS011;40954;45.668;18.980;2022-10-31T13:45:35;79.38;;;60.45;;
55053;SDS011;40954;45.668;18.980;2022-10-31T13:48:17;78.93;;;59.63;;
55053;SDS011;40954;45.668;18.980;2022-10-31T13:51:01;81.18;;;58.95;;
55053;SDS011;40954;45.668;18.980;2022-10-31T13:58:34;79.05;;;58.33;;
55053;SDS011;40954;45.668;18.980;2022-10-31T14:03:35;87.40;;;59.17;;
55053;SDS011;40954;45.668;18.980;2022-10-31T14:06:02;78.60;;;58.78;;
55053;SDS011;40954;45.668;18.980;2022-10-31T14:08:29;82.53;;;58.88;;
55053;SDS011;40954;45.668;18.980;2022-10-31T14:10:59;95.30;;;64.25;;
55053;SDS011;40954;45.668;18.980;2022-10-31T14:13:32;86.53;;;63.95;;
55053;SDS011;40954;45.668;18.980;2022-10-31T14:16:23;85.32;;;63.63;;
55053;SDS011;40954;45.668;18.980;2022-10-31T14:19:08;86.38;;;63.05;;
55053;SDS011;40954;45.668;18.980;2022-10-31T14:21:43;87.32;;;64.47;;
55053;SDS011;40954;45.668;18.980;2022-10-31T14:26:52;80.88;;;61.40;;
55053;SDS011;40954;45.668;18.980;2022-10-31T14:29:24;82.30;;;59.95;;
55053;SDS011;40954;45.668;18.980;2022-10-31T14:32:06;82.82;;;60.40;;
55053;SDS011;40954;45.668;18.980;2022-10-31T14:34:42;91.05;;;64.25;;
55053;SDS011;40954;45.668;18.980;2022-10-31T14:53:03;78.47;;;57.63;;
55053;SDS011;40954;45.668;18.980;2022-10-31T14:55:32;80.30;;;57.67;;
55053;SDS011;40954;45.668;18.980;2022-10-31T14:58:04;81.20;;;57.30;;
55053;SDS011;40954;45.668;18.980;2022-10-31T15:00:32;82.15;;;56.55;;
55053;SDS011;40954;45.668;18.980;2022-10-31T15:05:35;72.28;;;53.17;;
55053;SDS011;40954;45.668;18.980;2022-10-31T15:10:55;77.95;;;52.80;;
55053;SDS011;40954;45.668;18.980;2022-10-31T15:13:21;71.50;;;53.20;;
55053;SDS011;40954;45.668;18.980;2022-10-31T15:15:47;73.43;;;55.42;;
55053;SDS011;40954;45.668;18.980;2022-10-31T15:18:16;71.05;;;53.05;;
55053;SDS011;40954;45.668;18.980;2022-10-31T15:20:45;71.70;;;50.00;;
55053;SDS011;40954;45.668;18.980;2022-10-31T15:23:16;74.20;;;53.13;;
55053;SDS011;40954;45.668;18.980;2022-10-31T15:26:01;68.32;;;51.40;;
55053;SDS011;40954;45.668;18.980;2022-10-31T15:28:29;73.55;;;51.72;;
55053;SDS011;40954;45.668;18.980;2022-10-31T15:30:57;73.53;;;52.95;;
55053;SDS011;40954;45.668;18.980;2022-10-31T15:33:28;73.38;;;53.63;;
55053;SDS011;40954;45.668;18.980;2022-10-31T15:35:56;76.03;;;54.22;;
55053;SDS011;40954;45.668;18.980;2022-10-31T15:38:26;84.25;;;59.28;;
55053;SDS011;40954;45.668;18.980;2022-10-31T15:41:03;77.85;;;54.92;;
55053;SDS011;40954;45.668;18.980;2022-10-31T15:43:43;71.75;;;52.63;;
55053;SDS011;40954;45.668;18.980;2022-10-31T15:46:11;73.65;;;55.10;;
55053;SDS011;40954;45.668;18.980;2022-10-31T15:48:36;84.28;;;59.28;;
55053;SDS011;40954;45.668;18.980;2022-10-31T15:51:04;79.15;;;58.97;;
55053;SDS011;40954;45.668;18.980;2022-10-31T15:53:33;79.25;;;57.22;;
55053;SDS011;40954;45.668;18.980;2022-10-31T15:56:06;80.82;;;60.17;;
55053;SDS011;40954;45.668;18.980;2022-10-31T15:58:39;84.88;;;60.10;;
55053;SDS011;40954;45.668;18.980;2022-10-31T16:01:22;84.50;;;58.97;;
55053;SDS011;40954;45.668;18.980;2022-10-31T16:04:00;83.40;;;60.08;;
55053;SDS011;40954;45.668;18.980;2022-10-31T16:06:45;86.43;;;60.38;;
55053;SDS011;40954;45.668;18.980;2022-10-31T16:09:53;90.80;;;61.20;;
55053;SDS011;40954;45.668;18.980;2022-10-31T16:12:24;85.28;;;62.95;;
55053;SDS011;40954;45.668;18.980;2022-10-31T16:14:55;90.40;;;63.92;;
55053;SDS011;40954;45.668;18.980;2022-10-31T16:17:22;89.90;;;63.42;;
55053;SDS011;40954;45.668;18.980;2022-10-31T16:19:52;95.43;;;66.40;;
55053;SDS011;40954;45.668;18.980;2022-10-31T16:22:25;93.35;;;63.22;;
55053;SDS011;40954;45.668;18.980;2022-10-31T16:25:10;90.70;;;62.95;;
55053;SDS011;40954;45.668;18.980;2022-10-31T16:27:46;95.20;;;65.68;;
55053;SDS011;40954;45.668;18.980;2022-10-31T16:33:01;96.10;;;60.38;;
55053;SDS011;40954;45.668;18.980;2022-10-31T16:35:31;88.75;;;61.35;;
55053;SDS011;40954;45.668;18.980;2022-10-31T16:37:57;96.55;;;64.03;;
55053;SDS011;40954;45.668;18.980;2022-10-31T16:40:23;105.68;;;65.45;;
55053;SDS011;40954;45.668;18.980;2022-10-31T16:42:49;107.88;;;66.65;;
55053;SDS011;40954;45.668;18.980;2022-10-31T16:47:45;124.65;;;72.25;;
55053;SDS011;40954;45.668;18.980;2022-10-31T16:50:13;131.77;;;73.00;;
55053;SDS011;40954;45.668;18.980;2022-10-31T16:52:41;133.85;;;76.32;;
55053;SDS011;40954;45.668;18.980;2022-10-31T16:55:10;144.82;;;76.68;;
55053;SDS011;40954;45.668;18.980;2022-10-31T16:57:38;144.20;;;79.35;;
55053;SDS011;40954;45.668;18.980;2022-10-31T17:00:06;147.65;;;81.75;;
55053;SDS011;40954;45.668;18.980;2022-10-31T17:02:32;161.65;;;85.22;;